sensor_id;sensor_type;location;lat;lon;timestamp;P1;durP1;ratioP1;P2;durP2;ratioP2
54265;SDS011;40836;39.770;2.714;2022-09-21T00:00:46;11.05;;;3.67;;
54265;SDS011;40836;39.770;2.714;2022-09-21T00:03:13;7.65;;;3.83;;
54265;SDS011;40836;39.770;2.714;2022-09-21T00:05:39;6.05;;;3.60;;
54265;SDS011;40836;39.770;2.714;2022-09-21T00:08:05;7.13;;;3.90;;
54265;SDS011;40836;39.770;2.714;2022-09-21T00:10:31;10.25;;;3.97;;
54265;SDS011;40836;39.770;2.714;2022-09-21T00:12:58;6.30;;;3.72;;
54265;SDS011;40836;39.770;2.714;2022-09-21T00:15:26;8.07;;;3.88;;
54265;SDS011;40836;39.770;2.714;2022-09-21T00:17:52;9.75;;;3.60;;
54265;SDS011;40836;39.770;2.714;2022-09-21T00:20:18;6.03;;;3.75;;
54265;SDS011;40836;39.770;2.714;2022-09-21T00:22:45;7.05;;;3.60;;
54265;SDS011;40836;39.770;2.714;2022-09-21T00:25:11;10.35;;;3.92;;
54265;SDS011;40836;39.770;2.714;2022-09-21T00:27:37;7.55;;;3.38;;
54265;SDS011;40836;39.770;2.714;2022-09-21T00:30:03;6.07;;;3.63;;
54265;SDS011;40836;39.770;2.714;2022-09-21T00:32:31;9.65;;;3.83;;
54265;SDS011;40836;39.770;2.714;2022-09-21T00:34:58;6.65;;;3.35;;
54265;SDS011;40836;39.770;2.714;2022-09-21T00:37:27;8.55;;;3.63;;
54265;SDS011;40836;39.770;2.714;2022-09-21T00:39:53;5.53;;;3.35;;
54265;SDS011;40836;39.770;2.714;2022-09-21T00:44:46;7.60;;;3.75;;
54265;SDS011;40836;39.770;2.714;2022-09-21T00:47:13;7.22;;;3.35;;
54265;SDS011;40836;39.770;2.714;2022-09-21T00:49:46;6.53;;;3.70;;
54265;SDS011;40836;39.770;2.714;2022-09-21T00:52:14;10.38;;;3.85;;
54265;SDS011;40836;39.770;2.714;2022-09-21T00:54:56;6.88;;;3.30;;
54265;SDS011;40836;39.770;2.714;2022-09-21T00:57:25;8.75;;;3.42;;
54265;SDS011;40836;39.770;2.714;2022-09-21T00:59:55;6.45;;;3.58;;
54265;SDS011;40836;39.770;2.714;2022-09-21T01:02:25;8.23;;;3.50;;
54265;SDS011;40836;39.770;2.714;2022-09-21T01:04:52;9.25;;;3.65;;
54265;SDS011;40836;39.770;2.714;2022-09-21T01:07:20;6.25;;;3.50;;
54265;SDS011;40836;39.770;2.714;2022-09-21T01:09:50;6.55;;;3.53;;
54265;SDS011;40836;39.770;2.714;2022-09-21T01:18:20;6.10;;;3.40;;
54265;SDS011;40836;39.770;2.714;2022-09-21T01:21:19;5.72;;;3.28;;
54265;SDS011;40836;39.770;2.714;2022-09-21T01:31:37;5.38;;;3.20;;
54265;SDS011;40836;39.770;2.714;2022-09-21T01:34:13;6.03;;;3.17;;
54265;SDS011;40836;39.770;2.714;2022-09-21T01:36:56;6.07;;;3.28;;
54265;SDS011;40836;39.770;2.714;2022-09-21T01:39:28;8.80;;;3.25;;
54265;SDS011;40836;39.770;2.714;2022-09-21T01:41:54;5.55;;;3.47;;
54265;SDS011;40836;39.770;2.714;2022-09-21T01:44:22;7.10;;;3.38;;
54265;SDS011;40836;39.770;2.714;2022-09-21T01:46:52;5.28;;;3.45;;
54265;SDS011;40836;39.770;2.714;2022-09-21T01:49:22;4.22;;;3.00;;
54265;SDS011;40836;39.770;2.714;2022-09-21T01:51:56;10.35;;;3.60;;
54265;SDS011;40836;39.770;2.714;2022-09-21T01:54:39;6.43;;;3.17;;
54265;SDS011;40836;39.770;2.714;2022-09-21T01:57:10;5.75;;;3.40;;
54265;SDS011;40836;39.770;2.714;2022-09-21T01:59:52;7.20;;;3.38;;
54265;SDS011;40836;39.770;2.714;2022-09-21T02:02:30;6.43;;;3.55;;
54265;SDS011;40836;39.770;2.714;2022-09-21T02:05:19;6.75;;;3.83;;
54265;SDS011;40836;39.770;2.714;2022-09-21T02:07:47;4.10;;;3.03;;
54265;SDS011;40836;39.770;2.714;2022-09-21T02:10:34;5.50;;;3.38;;
54265;SDS011;40836;39.770;2.714;2022-09-21T02:13:04;7.07;;;3.70;;
54265;SDS011;40836;39.770;2.714;2022-09-21T02:21:44;5.25;;;3.45;;
54265;SDS011;40836;39.770;2.714;2022-09-21T02:24:46;7.18;;;4.00;;
54265;SDS011;40836;39.770;2.714;2022-09-21T02:27:32;5.38;;;3.47;;
54265;SDS011;40836;39.770;2.714;2022-09-21T02:32:56;5.88;;;3.60;;
54265;SDS011;40836;39.770;2.714;2022-09-21T02:35:25;7.22;;;3.65;;
54265;SDS011;40836;39.770;2.714;2022-09-21T02:40:53;7.05;;;3.60;;
54265;SDS011;40836;39.770;2.714;2022-09-21T02:46:26;5.63;;;3.42;;
54265;SDS011;40836;39.770;2.714;2022-09-21T02:48:51;5.22;;;3.58;;
54265;SDS011;40836;39.770;2.714;2022-09-21T02:51:28;6.07;;;3.38;;
54265;SDS011;40836;39.770;2.714;2022-09-21T02:53:57;6.43;;;3.75;;
54265;SDS011;40836;39.770;2.714;2022-09-21T02:56:26;5.32;;;3.60;;
54265;SDS011;40836;39.770;2.714;2022-09-21T02:58:55;6.00;;;3.47;;
54265;SDS011;40836;39.770;2.714;2022-09-21T03:01:23;6.25;;;3.45;;
54265;SDS011;40836;39.770;2.714;2022-09-21T03:03:50;6.28;;;3.47;;
54265;SDS011;40836;39.770;2.714;2022-09-21T03:06:16;6.30;;;3.50;;
54265;SDS011;40836;39.770;2.714;2022-09-21T03:08:41;7.93;;;3.60;;
54265;SDS011;40836;39.770;2.714;2022-09-21T03:11:07;6.18;;;3.63;;
54265;SDS011;40836;39.770;2.714;2022-09-21T03:13:32;7.55;;;3.90;;
54265;SDS011;40836;39.770;2.714;2022-09-21T03:15:59;4.50;;;3.30;;
54265;SDS011;40836;39.770;2.714;2022-09-21T03:18:25;6.15;;;3.85;;
54265;SDS011;40836;39.770;2.714;2022-09-21T03:20:51;8.18;;;3.67;;
54265;SDS011;40836;39.770;2.714;2022-09-21T03:23:17;6.25;;;3.13;;
54265;SDS011;40836;39.770;2.714;2022-09-21T03:25:43;5.10;;;3.65;;
54265;SDS011;40836;39.770;2.714;2022-09-21T03:28:10;7.20;;;3.58;;
54265;SDS011;40836;39.770;2.714;2022-09-21T03:30:37;7.60;;;3.47;;
54265;SDS011;40836;39.770;2.714;2022-09-21T03:33:03;5.03;;;3.22;;
54265;SDS011;40836;39.770;2.714;2022-09-21T03:35:30;6.43;;;3.22;;
54265;SDS011;40836;39.770;2.714;2022-09-21T03:37:58;6.05;;;3.55;;
54265;SDS011;40836;39.770;2.714;2022-09-21T03:40:23;4.35;;;3.20;;
54265;SDS011;40836;39.770;2.714;2022-09-21T03:42:50;7.25;;;3.65;;
54265;SDS011;40836;39.770;2.714;2022-09-21T03:45:15;6.28;;;3.20;;
54265;SDS011;40836;39.770;2.714;2022-09-21T03:47:41;7.13;;;3.65;;
54265;SDS011;40836;39.770;2.714;2022-09-21T03:50:07;8.57;;;3.58;;
54265;SDS011;40836;39.770;2.714;2022-09-21T03:52:33;6.03;;;3.42;;
54265;SDS011;40836;39.770;2.714;2022-09-21T03:55:00;6.28;;;3.80;;
54265;SDS011;40836;39.770;2.714;2022-09-21T03:57:26;5.60;;;3.70;;
54265;SDS011;40836;39.770;2.714;2022-09-21T03:59:51;5.13;;;3.42;;
54265;SDS011;40836;39.770;2.714;2022-09-21T04:02:18;6.57;;;3.67;;
54265;SDS011;40836;39.770;2.714;2022-09-21T04:04:44;7.20;;;3.90;;
54265;SDS011;40836;39.770;2.714;2022-09-21T04:07:09;6.95;;;3.65;;
54265;SDS011;40836;39.770;2.714;2022-09-21T04:09:34;6.55;;;3.60;;
54265;SDS011;40836;39.770;2.714;2022-09-21T04:12:00;6.82;;;3.72;;
54265;SDS011;40836;39.770;2.714;2022-09-21T04:14:26;5.93;;;3.70;;
54265;SDS011;40836;39.770;2.714;2022-09-21T04:16:51;5.80;;;3.63;;
54265;SDS011;40836;39.770;2.714;2022-09-21T04:19:17;5.82;;;3.63;;
54265;SDS011;40836;39.770;2.714;2022-09-21T04:21:43;6.57;;;3.97;;
54265;SDS011;40836;39.770;2.714;2022-09-21T04:24:08;6.50;;;3.80;;
54265;SDS011;40836;39.770;2.714;2022-09-21T04:26:34;5.30;;;3.33;;
54265;SDS011;40836;39.770;2.714;2022-09-21T04:29:00;5.80;;;3.63;;
54265;SDS011;40836;39.770;2.714;2022-09-21T04:31:26;5.70;;;3.50;;
54265;SDS011;40836;39.770;2.714;2022-09-21T04:33:53;6.32;;;3.53;;
54265;SDS011;40836;39.770;2.714;2022-09-21T04:36:21;5.85;;;3.42;;
54265;SDS011;40836;39.770;2.714;2022-09-21T04:38:47;4.97;;;3.20;;
54265;SDS011;40836;39.770;2.714;2022-09-21T04:41:14;5.32;;;3.42;;
54265;SDS011;40836;39.770;2.714;2022-09-21T04:43:40;7.53;;;3.63;;
54265;SDS011;40836;39.770;2.714;2022-09-21T04:46:07;7.43;;;4.10;;
54265;SDS011;40836;39.770;2.714;2022-09-21T04:48:34;8.27;;;3.80;;
54265;SDS011;40836;39.770;2.714;2022-09-21T04:51:00;6.82;;;3.58;;
54265;SDS011;40836;39.770;2.714;2022-09-21T04:53:27;11.27;;;3.90;;
54265;SDS011;40836;39.770;2.714;2022-09-21T04:55:53;5.60;;;3.65;;
54265;SDS011;40836;39.770;2.714;2022-09-21T04:58:20;7.28;;;3.60;;
54265;SDS011;40836;39.770;2.714;2022-09-21T05:00:52;12.95;;;3.75;;
54265;SDS011;40836;39.770;2.714;2022-09-21T05:03:19;9.10;;;3.63;;
54265;SDS011;40836;39.770;2.714;2022-09-21T05:05:45;7.97;;;3.72;;
54265;SDS011;40836;39.770;2.714;2022-09-21T05:08:12;7.65;;;3.83;;
54265;SDS011;40836;39.770;2.714;2022-09-21T05:10:37;11.27;;;3.55;;
54265;SDS011;40836;39.770;2.714;2022-09-21T05:13:03;6.80;;;3.92;;
54265;SDS011;40836;39.770;2.714;2022-09-21T05:15:28;8.77;;;3.75;;
54265;SDS011;40836;39.770;2.714;2022-09-21T05:17:54;7.72;;;3.60;;
54265;SDS011;40836;39.770;2.714;2022-09-21T05:20:19;7.40;;;3.65;;
54265;SDS011;40836;39.770;2.714;2022-09-21T05:22:45;10.63;;;4.05;;
54265;SDS011;40836;39.770;2.714;2022-09-21T05:25:10;16.50;;;4.00;;
54265;SDS011;40836;39.770;2.714;2022-09-21T05:27:35;9.30;;;4.45;;
54265;SDS011;40836;39.770;2.714;2022-09-21T05:30:01;23.05;;;4.50;;
54265;SDS011;40836;39.770;2.714;2022-09-21T05:40:08;13.27;;;4.30;;
54265;SDS011;40836;39.770;2.714;2022-09-21T05:42:35;8.32;;;3.67;;
54265;SDS011;40836;39.770;2.714;2022-09-21T05:45:01;11.10;;;4.10;;
54265;SDS011;40836;39.770;2.714;2022-09-21T05:47:48;8.10;;;3.90;;
54265;SDS011;40836;39.770;2.714;2022-09-21T05:53:27;9.32;;;4.30;;
54265;SDS011;40836;39.770;2.714;2022-09-21T05:56:17;7.65;;;3.90;;
54265;SDS011;40836;39.770;2.714;2022-09-21T06:04:11;16.15;;;4.40;;
54265;SDS011;40836;39.770;2.714;2022-09-21T06:06:37;7.47;;;4.00;;
54265;SDS011;40836;39.770;2.714;2022-09-21T06:09:03;12.25;;;4.90;;
54265;SDS011;40836;39.770;2.714;2022-09-21T06:11:29;8.27;;;3.80;;
54265;SDS011;40836;39.770;2.714;2022-09-21T06:13:55;13.05;;;4.50;;
54265;SDS011;40836;39.770;2.714;2022-09-21T06:16:21;10.10;;;3.97;;
54265;SDS011;40836;39.770;2.714;2022-09-21T06:18:46;9.63;;;4.20;;
54265;SDS011;40836;39.770;2.714;2022-09-21T06:21:12;11.88;;;3.95;;
54265;SDS011;40836;39.770;2.714;2022-09-21T06:23:37;17.92;;;4.70;;
54265;SDS011;40836;39.770;2.714;2022-09-21T06:26:03;19.38;;;4.97;;
54265;SDS011;40836;39.770;2.714;2022-09-21T06:28:28;15.90;;;5.10;;
54265;SDS011;40836;39.770;2.714;2022-09-21T06:30:54;20.25;;;5.25;;
54265;SDS011;40836;39.770;2.714;2022-09-21T06:33:21;28.35;;;9.63;;
54265;SDS011;40836;39.770;2.714;2022-09-21T06:35:57;30.77;;;16.13;;
54265;SDS011;40836;39.770;2.714;2022-09-21T06:38:24;42.50;;;27.33;;
54265;SDS011;40836;39.770;2.714;2022-09-21T06:40:52;41.38;;;22.73;;
54265;SDS011;40836;39.770;2.714;2022-09-21T06:43:17;36.15;;;18.10;;
54265;SDS011;40836;39.770;2.714;2022-09-21T06:45:43;35.85;;;22.35;;
54265;SDS011;40836;39.770;2.714;2022-09-21T06:48:16;33.38;;;22.33;;
54265;SDS011;40836;39.770;2.714;2022-09-21T06:50:41;36.42;;;21.20;;
54265;SDS011;40836;39.770;2.714;2022-09-21T06:53:07;39.10;;;22.48;;
54265;SDS011;40836;39.770;2.714;2022-09-21T06:55:32;30.45;;;20.88;;
54265;SDS011;40836;39.770;2.714;2022-09-21T06:58:02;35.22;;;19.27;;
54265;SDS011;40836;39.770;2.714;2022-09-21T07:00:28;32.42;;;17.98;;
54265;SDS011;40836;39.770;2.714;2022-09-21T07:02:54;29.35;;;16.70;;
54265;SDS011;40836;39.770;2.714;2022-09-21T07:05:19;23.60;;;11.93;;
54265;SDS011;40836;39.770;2.714;2022-09-21T07:07:45;25.98;;;12.35;;
54265;SDS011;40836;39.770;2.714;2022-09-21T07:10:10;25.17;;;12.00;;
54265;SDS011;40836;39.770;2.714;2022-09-21T07:12:36;25.80;;;9.00;;
54265;SDS011;40836;39.770;2.714;2022-09-21T07:15:02;19.65;;;8.95;;
54265;SDS011;40836;39.770;2.714;2022-09-21T07:17:32;18.42;;;7.63;;
54265;SDS011;40836;39.770;2.714;2022-09-21T07:19:59;20.48;;;7.20;;
54265;SDS011;40836;39.770;2.714;2022-09-21T07:22:27;20.95;;;7.75;;
54265;SDS011;40836;39.770;2.714;2022-09-21T07:24:56;22.02;;;7.18;;
54265;SDS011;40836;39.770;2.714;2022-09-21T07:27:22;22.52;;;7.38;;
54265;SDS011;40836;39.770;2.714;2022-09-21T07:29:49;21.55;;;7.30;;
54265;SDS011;40836;39.770;2.714;2022-09-21T07:32:15;18.13;;;6.15;;
54265;SDS011;40836;39.770;2.714;2022-09-21T07:34:41;15.02;;;6.57;;
54265;SDS011;40836;39.770;2.714;2022-09-21T07:37:06;12.95;;;6.43;;
54265;SDS011;40836;39.770;2.714;2022-09-21T07:39:32;17.00;;;8.25;;
54265;SDS011;40836;39.770;2.714;2022-09-21T07:41:57;12.07;;;6.72;;
54265;SDS011;40836;39.770;2.714;2022-09-21T07:44:23;15.50;;;7.45;;
54265;SDS011;40836;39.770;2.714;2022-09-21T07:46:49;12.25;;;5.63;;
54265;SDS011;40836;39.770;2.714;2022-09-21T07:49:14;13.02;;;5.25;;
54265;SDS011;40836;39.770;2.714;2022-09-21T07:51:40;10.48;;;4.78;;
54265;SDS011;40836;39.770;2.714;2022-09-21T07:54:07;9.55;;;4.32;;
54265;SDS011;40836;39.770;2.714;2022-09-21T07:56:35;10.02;;;4.30;;
54265;SDS011;40836;39.770;2.714;2022-09-21T07:59:02;5.70;;;2.70;;
54265;SDS011;40836;39.770;2.714;2022-09-21T08:01:35;8.02;;;4.20;;
54265;SDS011;40836;39.770;2.714;2022-09-21T08:04:06;6.25;;;3.20;;
54265;SDS011;40836;39.770;2.714;2022-09-21T08:06:34;7.03;;;3.28;;
54265;SDS011;40836;39.770;2.714;2022-09-21T08:09:01;49.80;;;22.85;;
54265;SDS011;40836;39.770;2.714;2022-09-21T08:11:28;32.95;;;14.60;;
54265;SDS011;40836;39.770;2.714;2022-09-21T08:13:55;30.17;;;15.60;;
54265;SDS011;40836;39.770;2.714;2022-09-21T08:16:25;30.50;;;15.40;;
54265;SDS011;40836;39.770;2.714;2022-09-21T08:18:53;21.67;;;11.65;;
54265;SDS011;40836;39.770;2.714;2022-09-21T08:21:19;13.85;;;8.10;;
54265;SDS011;40836;39.770;2.714;2022-09-21T08:23:46;10.48;;;5.80;;
54265;SDS011;40836;39.770;2.714;2022-09-21T08:26:13;15.82;;;6.13;;
54265;SDS011;40836;39.770;2.714;2022-09-21T08:28:42;12.05;;;5.70;;
54265;SDS011;40836;39.770;2.714;2022-09-21T08:31:13;9.55;;;4.22;;
54265;SDS011;40836;39.770;2.714;2022-09-21T08:33:39;7.13;;;3.90;;
54265;SDS011;40836;39.770;2.714;2022-09-21T08:36:05;6.13;;;3.55;;
54265;SDS011;40836;39.770;2.714;2022-09-21T08:38:31;9.05;;;3.58;;
54265;SDS011;40836;39.770;2.714;2022-09-21T08:40:59;7.75;;;3.33;;
54265;SDS011;40836;39.770;2.714;2022-09-21T08:43:35;7.47;;;3.97;;
54265;SDS011;40836;39.770;2.714;2022-09-21T08:46:05;6.82;;;3.92;;
54265;SDS011;40836;39.770;2.714;2022-09-21T08:48:35;4.75;;;2.60;;
54265;SDS011;40836;39.770;2.714;2022-09-21T08:51:07;4.90;;;2.92;;
54265;SDS011;40836;39.770;2.714;2022-09-21T08:53:38;6.70;;;3.30;;
54265;SDS011;40836;39.770;2.714;2022-09-21T08:56:12;5.15;;;2.78;;
54265;SDS011;40836;39.770;2.714;2022-09-21T08:58:39;5.57;;;3.17;;
54265;SDS011;40836;39.770;2.714;2022-09-21T09:07:05;4.83;;;2.77;;
54265;SDS011;40836;39.770;2.714;2022-09-21T09:18:32;4.35;;;2.47;;
54265;SDS011;40836;39.770;2.714;2022-09-21T09:21:16;5.97;;;3.00;;
54265;SDS011;40836;39.770;2.714;2022-09-21T09:23:50;7.00;;;2.88;;
54265;SDS011;40836;39.770;2.714;2022-09-21T09:26:26;9.13;;;3.17;;
54265;SDS011;40836;39.770;2.714;2022-09-21T09:31:43;5.07;;;2.85;;
54265;SDS011;40836;39.770;2.714;2022-09-21T09:34:12;3.95;;;2.67;;
54265;SDS011;40836;39.770;2.714;2022-09-21T09:36:46;7.90;;;2.92;;
54265;SDS011;40836;39.770;2.714;2022-09-21T09:39:16;5.85;;;2.90;;
54265;SDS011;40836;39.770;2.714;2022-09-21T09:47:40;5.57;;;2.80;;
54265;SDS011;40836;39.770;2.714;2022-09-21T09:53:13;6.10;;;2.83;;
54265;SDS011;40836;39.770;2.714;2022-09-21T09:55:48;6.60;;;2.80;;
54265;SDS011;40836;39.770;2.714;2022-09-21T09:58:20;7.75;;;2.88;;
54265;SDS011;40836;39.770;2.714;2022-09-21T10:00:51;5.20;;;2.75;;
54265;SDS011;40836;39.770;2.714;2022-09-21T10:03:19;5.35;;;2.70;;
54265;SDS011;40836;39.770;2.714;2022-09-21T10:05:46;5.63;;;2.63;;
54265;SDS011;40836;39.770;2.714;2022-09-21T10:08:29;7.63;;;2.78;;
54265;SDS011;40836;39.770;2.714;2022-09-21T10:11:01;4.45;;;2.78;;
54265;SDS011;40836;39.770;2.714;2022-09-21T10:13:31;6.13;;;2.75;;
54265;SDS011;40836;39.770;2.714;2022-09-21T10:16:20;5.07;;;2.80;;
54265;SDS011;40836;39.770;2.714;2022-09-21T10:18:48;7.03;;;2.90;;
54265;SDS011;40836;39.770;2.714;2022-09-21T10:21:24;5.20;;;2.70;;
54265;SDS011;40836;39.770;2.714;2022-09-21T10:23:52;12.32;;;3.92;;
54265;SDS011;40836;39.770;2.714;2022-09-21T10:26:23;7.43;;;3.30;;
54265;SDS011;40836;39.770;2.714;2022-09-21T10:34:32;9.13;;;3.80;;
54265;SDS011;40836;39.770;2.714;2022-09-21T10:37:22;6.32;;;3.40;;
54265;SDS011;40836;39.770;2.714;2022-09-21T10:39:53;7.32;;;2.83;;
54265;SDS011;40836;39.770;2.714;2022-09-21T10:42:19;8.70;;;3.17;;
54265;SDS011;40836;39.770;2.714;2022-09-21T10:44:51;5.82;;;2.63;;
54265;SDS011;40836;39.770;2.714;2022-09-21T10:50:19;4.80;;;2.85;;
54265;SDS011;40836;39.770;2.714;2022-09-21T10:52:46;4.70;;;3.13;;
54265;SDS011;40836;39.770;2.714;2022-09-21T10:55:22;6.30;;;3.17;;
54265;SDS011;40836;39.770;2.714;2022-09-21T10:57:49;7.75;;;2.90;;
54265;SDS011;40836;39.770;2.714;2022-09-21T11:02:58;6.22;;;2.85;;
54265;SDS011;40836;39.770;2.714;2022-09-21T11:05:37;6.20;;;3.08;;
54265;SDS011;40836;39.770;2.714;2022-09-21T11:08:15;7.18;;;3.03;;
54265;SDS011;40836;39.770;2.714;2022-09-21T11:19:04;10.77;;;2.80;;
54265;SDS011;40836;39.770;2.714;2022-09-21T11:26:55;4.93;;;2.42;;
54265;SDS011;40836;39.770;2.714;2022-09-21T11:29:32;5.75;;;2.75;;
54265;SDS011;40836;39.770;2.714;2022-09-21T11:32:10;8.50;;;2.75;;
54265;SDS011;40836;39.770;2.714;2022-09-21T11:46:20;7.15;;;2.90;;
54265;SDS011;40836;39.770;2.714;2022-09-21T11:57:19;6.82;;;2.60;;
54265;SDS011;40836;39.770;2.714;2022-09-21T12:05:25;5.05;;;2.75;;
54265;SDS011;40836;39.770;2.714;2022-09-21T12:10:57;6.13;;;3.05;;
54265;SDS011;40836;39.770;2.714;2022-09-21T12:13:35;6.13;;;3.10;;
54265;SDS011;40836;39.770;2.714;2022-09-21T12:19:25;6.25;;;2.40;;
54265;SDS011;40836;39.770;2.714;2022-09-21T12:22:05;5.13;;;2.75;;
54265;SDS011;40836;39.770;2.714;2022-09-21T12:24:38;4.35;;;2.78;;
54265;SDS011;40836;39.770;2.714;2022-09-21T12:27:10;5.60;;;2.70;;
54265;SDS011;40836;39.770;2.714;2022-09-21T12:29:42;5.30;;;2.70;;
54265;SDS011;40836;39.770;2.714;2022-09-21T12:34:59;5.38;;;3.00;;
54265;SDS011;40836;39.770;2.714;2022-09-21T12:37:30;4.88;;;2.60;;
54265;SDS011;40836;39.770;2.714;2022-09-21T12:45:36;5.78;;;3.05;;
54265;SDS011;40836;39.770;2.714;2022-09-21T12:48:08;7.65;;;2.80;;
54265;SDS011;40836;39.770;2.714;2022-09-21T12:50:45;4.10;;;2.88;;
54265;SDS011;40836;39.770;2.714;2022-09-21T12:53:19;4.45;;;2.95;;
54265;SDS011;40836;39.770;2.714;2022-09-21T13:01:35;5.97;;;2.90;;
54265;SDS011;40836;39.770;2.714;2022-09-21T13:15:55;5.90;;;3.20;;
54265;SDS011;40836;39.770;2.714;2022-09-21T13:18:27;6.38;;;2.80;;
54265;SDS011;40836;39.770;2.714;2022-09-21T13:21:18;4.30;;;2.63;;
54265;SDS011;40836;39.770;2.714;2022-09-21T13:23:58;5.30;;;2.80;;
54265;SDS011;40836;39.770;2.714;2022-09-21T13:29:01;11.07;;;3.10;;
54265;SDS011;40836;39.770;2.714;2022-09-21T13:34:24;4.75;;;2.60;;
54265;SDS011;40836;39.770;2.714;2022-09-21T13:39:47;5.32;;;2.90;;
54265;SDS011;40836;39.770;2.714;2022-09-21T13:44:59;5.78;;;2.80;;
54265;SDS011;40836;39.770;2.714;2022-09-21T13:47:53;5.80;;;2.83;;
54265;SDS011;40836;39.770;2.714;2022-09-21T13:50:24;8.30;;;2.90;;
54265;SDS011;40836;39.770;2.714;2022-09-21T13:53:02;5.38;;;2.58;;
54265;SDS011;40836;39.770;2.714;2022-09-21T13:55:53;5.60;;;2.85;;
54265;SDS011;40836;39.770;2.714;2022-09-21T13:58:57;5.65;;;2.80;;
54265;SDS011;40836;39.770;2.714;2022-09-21T14:01:25;6.22;;;2.90;;
54265;SDS011;40836;39.770;2.714;2022-09-21T14:03:57;6.07;;;2.70;;
54265;SDS011;40836;39.770;2.714;2022-09-21T14:06:40;5.28;;;2.80;;
54265;SDS011;40836;39.770;2.714;2022-09-21T14:09:18;8.38;;;3.00;;
54265;SDS011;40836;39.770;2.714;2022-09-21T14:11:45;5.32;;;2.80;;
54265;SDS011;40836;39.770;2.714;2022-09-21T14:14:25;5.65;;;2.67;;
54265;SDS011;40836;39.770;2.714;2022-09-21T14:16:58;5.50;;;2.63;;
54265;SDS011;40836;39.770;2.714;2022-09-21T14:32:25;4.47;;;2.40;;
54265;SDS011;40836;39.770;2.714;2022-09-21T14:34:54;5.15;;;2.67;;
54265;SDS011;40836;39.770;2.714;2022-09-21T14:37:35;5.55;;;2.72;;
54265;SDS011;40836;39.770;2.714;2022-09-21T14:40:21;11.30;;;3.03;;
54265;SDS011;40836;39.770;2.714;2022-09-21T14:42:49;4.70;;;2.67;;
54265;SDS011;40836;39.770;2.714;2022-09-21T14:45:18;4.50;;;3.00;;
54265;SDS011;40836;39.770;2.714;2022-09-21T15:00:43;6.05;;;2.80;;
54265;SDS011;40836;39.770;2.714;2022-09-21T15:12:12;8.15;;;2.78;;
54265;SDS011;40836;39.770;2.714;2022-09-21T15:14:45;3.97;;;2.47;;
54265;SDS011;40836;39.770;2.714;2022-09-21T15:17:26;4.95;;;2.63;;
54265;SDS011;40836;39.770;2.714;2022-09-21T15:19:57;6.57;;;2.80;;
54265;SDS011;40836;39.770;2.714;2022-09-21T15:22:24;4.43;;;2.50;;
54265;SDS011;40836;39.770;2.714;2022-09-21T15:24:52;5.05;;;2.47;;
54265;SDS011;40836;39.770;2.714;2022-09-21T15:27:20;5.68;;;2.63;;
54265;SDS011;40836;39.770;2.714;2022-09-21T15:29:48;6.05;;;2.60;;
54265;SDS011;40836;39.770;2.714;2022-09-21T15:35:06;3.97;;;2.60;;
54265;SDS011;40836;39.770;2.714;2022-09-21T15:37:42;6.20;;;2.60;;
54265;SDS011;40836;39.770;2.714;2022-09-21T15:40:25;7.15;;;2.95;;
54265;SDS011;40836;39.770;2.714;2022-09-21T15:48:34;5.78;;;2.83;;
54265;SDS011;40836;39.770;2.714;2022-09-21T15:51:22;4.22;;;2.70;;
54265;SDS011;40836;39.770;2.714;2022-09-21T15:53:56;5.65;;;2.80;;
54265;SDS011;40836;39.770;2.714;2022-09-21T15:56:35;6.88;;;2.90;;
54265;SDS011;40836;39.770;2.714;2022-09-21T15:59:04;6.88;;;2.63;;
54265;SDS011;40836;39.770;2.714;2022-09-21T16:01:40;4.50;;;2.72;;
54265;SDS011;40836;39.770;2.714;2022-09-21T16:04:15;4.90;;;2.70;;
54265;SDS011;40836;39.770;2.714;2022-09-21T16:09:37;5.18;;;2.78;;
54265;SDS011;40836;39.770;2.714;2022-09-21T16:14:59;5.47;;;2.90;;
54265;SDS011;40836;39.770;2.714;2022-09-21T16:17:34;4.38;;;2.65;;
54265;SDS011;40836;39.770;2.714;2022-09-21T16:25:32;4.88;;;2.70;;
54265;SDS011;40836;39.770;2.714;2022-09-21T16:30:50;5.40;;;2.70;;
54265;SDS011;40836;39.770;2.714;2022-09-21T16:38:49;7.22;;;2.60;;
54265;SDS011;40836;39.770;2.714;2022-09-21T16:41:17;6.80;;;2.90;;
54265;SDS011;40836;39.770;2.714;2022-09-21T16:43:43;7.72;;;2.78;;
54265;SDS011;40836;39.770;2.714;2022-09-21T16:46:09;5.28;;;2.85;;
54265;SDS011;40836;39.770;2.714;2022-09-21T16:48:35;5.43;;;2.70;;
54265;SDS011;40836;39.770;2.714;2022-09-21T16:51:01;6.00;;;2.67;;
54265;SDS011;40836;39.770;2.714;2022-09-21T16:53:27;7.47;;;2.67;;
54265;SDS011;40836;39.770;2.714;2022-09-21T16:55:53;4.90;;;2.90;;
54265;SDS011;40836;39.770;2.714;2022-09-21T16:58:21;4.97;;;2.50;;
54265;SDS011;40836;39.770;2.714;2022-09-21T17:00:48;7.00;;;2.80;;
54265;SDS011;40836;39.770;2.714;2022-09-21T17:03:17;8.95;;;6.60;;
54265;SDS011;40836;39.770;2.714;2022-09-21T17:05:43;5.60;;;3.60;;
54265;SDS011;40836;39.770;2.714;2022-09-21T17:08:09;6.22;;;2.53;;
54265;SDS011;40836;39.770;2.714;2022-09-21T17:10:37;7.57;;;2.55;;
54265;SDS011;40836;39.770;2.714;2022-09-21T17:13:08;6.18;;;2.40;;
54265;SDS011;40836;39.770;2.714;2022-09-21T17:15:34;5.32;;;2.33;;
54265;SDS011;40836;39.770;2.714;2022-09-21T17:18:01;6.85;;;2.47;;
54265;SDS011;40836;39.770;2.714;2022-09-21T17:20:34;7.97;;;2.75;;
54265;SDS011;40836;39.770;2.714;2022-09-21T17:25:31;5.55;;;2.53;;
54265;SDS011;40836;39.770;2.714;2022-09-21T17:27:58;9.57;;;2.20;;
54265;SDS011;40836;39.770;2.714;2022-09-21T17:30:24;7.47;;;2.85;;
54265;SDS011;40836;39.770;2.714;2022-09-21T17:32:50;4.57;;;2.55;;
54265;SDS011;40836;39.770;2.714;2022-09-21T17:37:51;3.78;;;2.47;;
54265;SDS011;40836;39.770;2.714;2022-09-21T17:40:16;6.57;;;2.60;;
54265;SDS011;40836;39.770;2.714;2022-09-21T17:42:42;4.72;;;2.50;;
54265;SDS011;40836;39.770;2.714;2022-09-21T17:47:43;5.93;;;2.55;;
54265;SDS011;40836;39.770;2.714;2022-09-21T17:52:35;6.15;;;2.35;;
54265;SDS011;40836;39.770;2.714;2022-09-21T17:55:19;8.27;;;4.57;;
54265;SDS011;40836;39.770;2.714;2022-09-21T18:03:18;4.68;;;2.70;;
54265;SDS011;40836;39.770;2.714;2022-09-21T18:05:49;7.93;;;2.40;;
54265;SDS011;40836;39.770;2.714;2022-09-21T18:08:16;6.90;;;2.83;;
54265;SDS011;40836;39.770;2.714;2022-09-21T18:10:43;8.30;;;2.30;;
54265;SDS011;40836;39.770;2.714;2022-09-21T18:21:03;5.90;;;2.50;;
54265;SDS011;40836;39.770;2.714;2022-09-21T18:23:51;5.70;;;2.58;;
54265;SDS011;40836;39.770;2.714;2022-09-21T18:26:23;6.85;;;2.60;;
54265;SDS011;40836;39.770;2.714;2022-09-21T18:28:50;5.10;;;2.58;;
54265;SDS011;40836;39.770;2.714;2022-09-21T18:33:53;6.43;;;2.70;;
54265;SDS011;40836;39.770;2.714;2022-09-21T18:36:58;5.50;;;2.85;;
54265;SDS011;40836;39.770;2.714;2022-09-21T18:45:11;6.45;;;3.10;;
54265;SDS011;40836;39.770;2.714;2022-09-21T18:56:10;7.47;;;2.72;;
54265;SDS011;40836;39.770;2.714;2022-09-21T18:58:36;9.25;;;3.10;;
54265;SDS011;40836;39.770;2.714;2022-09-21T19:01:03;7.15;;;3.10;;
54265;SDS011;40836;39.770;2.714;2022-09-21T19:03:29;6.88;;;3.00;;
54265;SDS011;40836;39.770;2.714;2022-09-21T19:08:38;6.75;;;3.58;;
54265;SDS011;40836;39.770;2.714;2022-09-21T19:11:20;7.55;;;3.47;;
54265;SDS011;40836;39.770;2.714;2022-09-21T19:23:01;7.18;;;3.35;;
54265;SDS011;40836;39.770;2.714;2022-09-21T19:28:56;6.18;;;2.80;;
54265;SDS011;40836;39.770;2.714;2022-09-21T19:31:33;5.25;;;3.10;;
54265;SDS011;40836;39.770;2.714;2022-09-21T19:34:01;7.32;;;3.78;;
54265;SDS011;40836;39.770;2.714;2022-09-21T19:36:37;5.22;;;3.05;;
54265;SDS011;40836;39.770;2.714;2022-09-21T19:39:03;8.80;;;3.10;;
54265;SDS011;40836;39.770;2.714;2022-09-21T19:47:03;17.58;;;2.95;;
54265;SDS011;40836;39.770;2.714;2022-09-21T19:49:36;4.63;;;3.13;;
54265;SDS011;40836;39.770;2.714;2022-09-21T19:52:10;7.85;;;3.58;;
54265;SDS011;40836;39.770;2.714;2022-09-21T19:54:40;6.72;;;3.10;;